createdAt,value
2023-04-19T00:03:47.204Z,4.64
2023-04-19T00:08:55.916Z,4.64
2023-04-19T00:14:05.274Z,4.43
2023-04-19T00:19:15.102Z,4.43
2023-04-19T00:24:25.185Z,4.48
2023-04-19T00:29:35.591Z,4.48
2023-04-19T00:34:45.341Z,4.62
2023-04-19T00:39:53.825Z,4.62
2023-04-19T00:45:03.576Z,4.54
2023-04-19T00:50:13.417Z,4.54
2023-04-19T00:55:23.069Z,4.61
2023-04-19T01:00:33.510Z,4.61
2023-04-19T01:05:41.993Z,4.64
2023-04-19T01:10:51.733Z,4.47
2023-04-19T01:16:01.683Z,4.47
2023-04-19T01:21:11.251Z,4.56
2023-04-19T01:26:21.026Z,4.56
2023-04-19T01:31:30.494Z,4.46
2023-04-19T01:36:39.870Z,4.46
2023-04-19T01:41:47.745Z,4.36
2023-04-19T01:46:58.439Z,4.36
2023-04-19T01:52:06.637Z,4.35
2023-04-19T01:57:15.760Z,4.35
2023-04-19T02:02:29.478Z,4.34
2023-04-19T02:07:37.194Z,4.34
2023-04-19T02:12:46.319Z,4.3
2023-04-19T02:17:56.250Z,4.3
2023-04-19T02:23:05.193Z,4.23
2023-04-19T02:28:14.260Z,4.23
2023-04-19T02:33:23.419Z,4.15
2023-04-19T02:38:31.896Z,4.15
2023-04-19T02:43:41.023Z,4.09
2023-04-19T02:48:50.793Z,4.09
2023-04-19T02:54:00.523Z,4.07
2023-04-19T02:59:10.924Z,4.07
2023-04-19T03:14:37.669Z,4.09
2023-04-19T04:01:02.364Z,3.99
2023-04-19T04:06:10.158Z,3.99
2023-04-19T04:11:18.667Z,3.98
2023-04-19T04:16:27.240Z,3.98
2023-04-19T04:21:35.675Z,4.03
2023-04-19T04:26:45.304Z,4.03
2023-04-19T04:31:55.298Z,4
2023-04-19T04:37:03.593Z,4
2023-04-19T04:42:13.324Z,4.02
2023-04-19T04:47:23.438Z,4.02
2023-04-19T04:52:32.826Z,4.05
2023-04-19T04:57:42.025Z,4.05
2023-04-19T05:02:52.216Z,4.06
2023-04-19T05:08:23.921Z,4.06
2023-04-19T05:13:32.372Z,4.01
2023-04-19T05:18:42.769Z,4.01
2023-04-19T05:23:51.998Z,4.15
2023-04-19T05:29:01.036Z,4.15
2023-04-19T05:34:10.772Z,4.07
2023-04-19T05:39:20.627Z,4.07
2023-04-19T05:44:30.362Z,4.11
2023-04-19T05:49:43.516Z,4.11
2023-04-19T05:54:52.417Z,4.07
2023-04-19T06:00:03.489Z,4.07
2023-04-19T06:05:12.520Z,4.08
2023-04-19T06:10:19.777Z,4.08
2023-04-19T06:15:30.853Z,4.02
2023-04-19T06:20:38.757Z,4.02
2023-04-19T06:25:46.538Z,4.05
2023-04-19T06:30:56.241Z,4.05
2023-04-19T06:36:06.022Z,4.06
2023-04-19T06:41:15.746Z,4.06
2023-04-19T06:46:24.539Z,4.04
2023-04-19T06:51:32.077Z,4.04
2023-04-19T06:56:41.170Z,4.03
2023-04-19T07:01:52.421Z,3.99
2023-04-19T07:07:02.005Z,3.99
2023-04-19T07:12:10.501Z,4.03
2023-04-19T07:17:18.934Z,4.03
2023-04-19T07:22:29.327Z,4.04
2023-04-19T08:15:05.100Z,3.98
2023-04-19T08:19:17.307Z,3.98
2023-04-19T08:24:28.310Z,3.99
2023-04-19T08:29:35.590Z,3.99
2023-04-19T08:34:44.689Z,3.88
2023-04-19T08:39:55.762Z,3.88
2023-04-19T08:51:05.918Z,3.88
2023-04-19T08:55:27.596Z,3.86
2023-04-19T09:00:38.024Z,3.86
2023-04-19T09:05:48.978Z,3.89
2023-04-19T09:10:57.448Z,3.89
2023-04-19T09:16:06.006Z,3.78
2023-04-19T09:21:16.406Z,3.78
2023-04-19T09:26:24.251Z,3.88
2023-04-19T09:31:53.034Z,3.88
2023-04-19T09:36:44.364Z,3.85
2023-04-19T09:41:53.812Z,3.85
2023-04-19T09:47:02.475Z,3.87
2023-04-19T09:52:12.361Z,3.87
2023-04-19T09:57:20.858Z,3.88
2023-04-19T10:02:32.661Z,3.88
2023-04-19T10:07:41.237Z,3.88
2023-04-19T10:13:27.050Z,3.88
2023-04-19T10:18:02.302Z,3.88
2023-04-19T10:23:12.841Z,3.87
2023-04-19T10:28:21.324Z,3.87
2023-04-19T10:33:33.015Z,3.86
2023-04-19T10:38:42.150Z,3.86
2023-04-19T10:43:53.208Z,3.91
2023-04-19T10:49:01.729Z,3.91
2023-04-19T10:54:11.392Z,3.89
2023-04-19T10:59:21.906Z,3.89
2023-04-19T11:04:32.707Z,3.92
2023-04-19T11:09:41.335Z,3.92
2023-04-19T11:14:51.108Z,3.88
2023-04-19T11:20:02.300Z,3.88
2023-04-19T11:25:11.951Z,3.91
2023-04-19T12:16:53.582Z,4.03
2023-04-19T12:53:47.193Z,4.09
2023-04-19T12:58:56.900Z,4.09
2023-04-19T13:04:07.327Z,4.03
2023-04-19T13:09:15.794Z,4.03
2023-04-19T13:14:24.887Z,4.01
2023-04-19T13:19:34.626Z,4.01
2023-04-19T13:24:43.712Z,3.97
2023-04-19T13:29:52.840Z,3.97
2023-04-19T13:35:02.647Z,4.02
2023-04-19T13:40:20.387Z,4.02
2023-04-19T13:45:21.515Z,4.04
2023-04-19T13:50:30.635Z,4.04
2023-04-19T13:55:40.355Z,3.98
2023-04-19T14:00:49.093Z,3.98
2023-04-19T14:05:59.289Z,3.99
2023-04-19T14:11:07.756Z,3.99
2023-04-19T14:16:18.302Z,3.98
2023-04-19T14:21:27.256Z,3.98
2023-04-19T14:26:36.401Z,3.96
2023-04-19T14:31:45.715Z,3.96
2023-04-19T14:36:55.260Z,3.95
2023-04-19T14:42:05.674Z,3.95
2023-04-19T14:47:16.071Z,3.98
2023-04-19T14:52:25.818Z,3.98
2023-04-19T14:57:34.961Z,4.02
2023-04-19T15:02:44.869Z,4.02
2023-04-19T15:07:53.199Z,3.96
2023-04-19T15:13:02.932Z,3.96
2023-04-19T15:18:13.335Z,3.99
2023-04-19T15:23:23.083Z,3.92
2023-04-19T15:28:32.205Z,3.92
2023-04-19T15:33:42.045Z,3.95
2023-04-19T15:38:50.457Z,3.95
2023-04-19T15:43:59.594Z,3.97
2023-04-19T15:49:08.064Z,3.97
2023-04-19T16:35:33.429Z,3.92
2023-04-19T16:40:42.469Z,3.92
2023-04-19T16:45:52.474Z,3.94
2023-04-19T16:51:01.964Z,3.94
2023-04-19T16:56:12.403Z,3.95
2023-04-19T17:01:21.076Z,3.95
2023-04-19T17:06:29.360Z,3.99
2023-04-19T17:11:38.486Z,3.99
2023-04-19T17:16:46.951Z,3.96
2023-04-19T17:21:57.345Z,3.96
2023-04-19T17:27:06.444Z,3.95
2023-04-19T17:32:16.873Z,3.95
2023-04-19T17:37:25.389Z,3.95
2023-04-19T17:42:34.447Z,3.95
2023-04-19T17:47:44.652Z,3.98
2023-04-19T17:52:53.304Z,3.98
2023-04-19T17:58:02.450Z,3.96
2023-04-19T18:03:12.859Z,3.96
2023-04-19T18:08:20.696Z,3.98
2023-04-19T18:13:30.492Z,3.98
2023-04-19T18:18:40.191Z,4.03
2023-04-19T18:23:49.318Z,4.03
2023-04-19T18:28:57.216Z,3.98
2023-04-19T18:34:06.321Z,4.02
2023-04-19T18:39:17.431Z,4.02
2023-04-19T18:44:55.062Z,3.99
2023-04-19T18:49:34.411Z,3.99
2023-04-19T18:54:44.092Z,4.02
2023-04-19T18:59:53.171Z,4.02
2023-04-19T19:15:21.199Z,4
2023-04-19T19:20:29.062Z,4
2023-04-19T19:25:38.122Z,4.04
2023-04-19T19:30:46.605Z,4.04
2023-04-19T19:52:00.078Z,4.01
2023-04-19T20:08:08.286Z,3.98
2023-04-19T20:22:19.189Z,3.98
2023-04-19T20:27:27.668Z,3.98
2023-04-19T20:32:37.463Z,3.98
2023-04-19T20:37:47.743Z,3.93
2023-04-19T20:42:56.223Z,3.93
2023-04-19T20:48:05.557Z,3.92
2023-04-19T20:53:13.820Z,3.92
2023-04-19T20:58:22.986Z,3.9
2023-04-19T21:03:33.872Z,3.9
2023-04-19T21:08:41.519Z,3.88
2023-04-19T21:13:50.318Z,3.88
2023-04-19T21:19:00.080Z,3.9
2023-04-19T21:24:09.188Z,3.9
2023-04-19T21:29:18.687Z,3.93
2023-04-19T21:34:26.184Z,3.93
2023-04-19T21:39:35.307Z,3.86
2023-04-19T21:44:43.762Z,3.9
2023-04-19T21:49:53.502Z,3.9
2023-04-19T21:55:02.687Z,3.87
2023-04-19T22:00:12.666Z,3.87
2023-04-19T22:05:21.510Z,3.88
2023-04-19T22:10:30.641Z,3.88
2023-04-19T22:15:39.100Z,3.87
2023-04-19T22:20:48.871Z,3.87
2023-04-19T22:25:57.370Z,3.9
2023-04-19T22:31:05.814Z,3.9
2023-04-19T22:36:14.969Z,3.85
2023-04-19T22:41:23.398Z,3.85
2023-04-19T22:46:33.676Z,3.86
2023-04-19T22:51:42.918Z,3.86
2023-04-19T22:56:52.125Z,3.87
2023-04-19T23:02:02.554Z,3.87
2023-04-19T23:07:12.236Z,3.81
2023-04-19T23:12:20.714Z,3.81
2023-04-19T23:17:30.010Z,3.85
